createdAt,value
2022-08-27T00:02:16.838Z,6.28
2022-08-27T00:04:43.975Z,6.63
2022-08-27T00:07:10.703Z,6.03
2022-08-27T00:09:37.540Z,7.03
2022-08-27T00:12:04.181Z,5.88
2022-08-27T00:14:30.815Z,5.70
2022-08-27T00:16:57.561Z,6.22
2022-08-27T00:19:24.317Z,5.25
2022-08-27T00:21:51.035Z,6.25
2022-08-27T00:24:17.692Z,6.43
2022-08-27T00:26:45.661Z,6.15
2022-08-27T00:29:12.223Z,6.35
2022-08-27T00:31:39.171Z,6.45
2022-08-27T00:34:05.903Z,6.97
2022-08-27T00:36:34.151Z,6.10
2022-08-27T00:39:00.865Z,6.25
2022-08-27T00:41:27.779Z,5.55
2022-08-27T00:43:57.478Z,6.00
2022-08-27T00:46:28.376Z,6.55
2022-08-27T00:48:56.017Z,6.32
2022-08-27T00:51:22.989Z,6.30
2022-08-27T00:53:50.266Z,6.72
2022-08-27T00:56:19.043Z,5.68
2022-08-27T00:58:46.590Z,6.32
2022-08-27T01:01:14.441Z,6.43
2022-08-27T01:03:41.109Z,6.82
2022-08-27T01:06:10.173Z,6.70
2022-08-27T01:08:38.799Z,6.97
2022-08-27T01:11:05.644Z,6.85
2022-08-27T01:13:58.843Z,6.00
2022-08-27T01:16:21.877Z,7.72
2022-08-27T01:18:49.563Z,6.18
2022-08-27T01:21:19.169Z,5.90
2022-08-27T01:23:51.087Z,5.70
2022-08-27T01:26:17.649Z,6.47
2022-08-27T01:28:44.230Z,5.65
2022-08-27T01:31:11.185Z,5.97
2022-08-27T01:33:37.866Z,6.03
2022-08-27T01:36:04.553Z,6.55
2022-08-27T01:38:31.846Z,6.15
2022-08-27T01:40:59.265Z,5.30
2022-08-27T01:43:27.641Z,6.60
2022-08-27T01:45:54.184Z,5.90
2022-08-27T01:48:21.042Z,5.75
2022-08-27T01:50:48.434Z,5.93
2022-08-27T01:53:15.998Z,5.60
2022-08-27T01:55:48.131Z,5.20
2022-08-27T01:58:15.694Z,5.43
2022-08-27T02:00:44.177Z,5.72
2022-08-27T02:03:11.112Z,5.65
2022-08-27T02:05:44.746Z,6.32
2022-08-27T02:08:12.290Z,5.90
2022-08-27T02:10:39.406Z,5.70
2022-08-27T02:13:07.110Z,5.43
2022-08-27T02:15:34.619Z,6.20
2022-08-27T02:18:01.375Z,5.03
2022-08-27T02:20:29.320Z,5.00
2022-08-27T02:22:56.119Z,5.60
2022-08-27T02:25:22.652Z,5.45
2022-08-27T02:27:49.316Z,6.10
2022-08-27T02:30:17.165Z,5.32
2022-08-27T02:32:45.711Z,5.68
2022-08-27T02:35:12.247Z,5.35
2022-08-27T02:37:38.840Z,5.45
2022-08-27T02:40:06.148Z,6.22
2022-08-27T02:42:32.837Z,5.93
2022-08-27T02:44:59.451Z,5.70
2022-08-27T02:47:26.004Z,5.50
2022-08-27T02:49:52.541Z,6.25
2022-08-27T02:52:24.889Z,5.28
2022-08-27T02:54:51.972Z,5.28
2022-08-27T02:57:18.525Z,4.80
2022-08-27T02:59:45.384Z,5.35
2022-08-27T03:02:12.089Z,6.35
2022-08-27T03:04:38.763Z,5.57
2022-08-27T03:07:05.298Z,5.90
2022-08-27T03:09:31.895Z,5.22
2022-08-27T03:11:58.596Z,6.38
2022-08-27T03:14:25.224Z,5.72
2022-08-27T03:16:51.978Z,6.50
2022-08-27T03:19:24.065Z,5.70
2022-08-27T03:21:54.277Z,6.20
2022-08-27T03:24:21.621Z,6.18
2022-08-27T03:26:53.938Z,6.32
2022-08-27T03:29:20.839Z,7.10
2022-08-27T03:31:47.431Z,5.72
2022-08-27T03:34:14.036Z,6.30
2022-08-27T03:36:46.840Z,5.28
2022-08-27T03:39:13.829Z,6.35
2022-08-27T03:41:54.302Z,6.00
2022-08-27T03:44:22.877Z,5.68
2022-08-27T03:46:50.270Z,6.00
2022-08-27T03:49:20.537Z,5.68
2022-08-27T03:51:48.297Z,5.50
2022-08-27T03:54:14.938Z,5.95
2022-08-27T03:56:41.878Z,5.78
2022-08-27T03:59:08.503Z,6.53
2022-08-27T04:01:35.245Z,5.43
2022-08-27T04:04:01.947Z,6.93
2022-08-27T04:06:28.568Z,6.68
2022-08-27T04:08:55.174Z,5.57
2022-08-27T04:11:22.344Z,5.68
2022-08-27T04:13:48.996Z,6.78
2022-08-27T04:16:15.819Z,5.70
2022-08-27T04:18:42.445Z,6.05
2022-08-27T04:21:13.072Z,6.15
2022-08-27T04:23:40.121Z,5.93
2022-08-27T04:26:07.128Z,5.60
2022-08-27T04:28:37.901Z,6.32
2022-08-27T04:31:05.654Z,6.47
2022-08-27T04:33:32.628Z,6.25
2022-08-27T04:36:02.870Z,6.32
2022-08-27T04:38:32.061Z,6.03
2022-08-27T04:41:21.568Z,5.30
2022-08-27T04:43:52.439Z,5.65
2022-08-27T04:46:22.106Z,5.35
2022-08-27T04:48:48.806Z,5.70
2022-08-27T04:51:17.385Z,5.38
2022-08-27T04:53:45.476Z,5.25
2022-08-27T04:56:15.766Z,5.35
2022-08-27T04:58:42.690Z,5.40
2022-08-27T05:01:09.513Z,5.72
2022-08-27T05:03:36.488Z,5.35
2022-08-27T05:06:07.389Z,5.35
2022-08-27T05:08:37.366Z,4.75
2022-08-27T05:11:06.172Z,5.15
2022-08-27T05:13:37.308Z,5.55
2022-08-27T05:16:05.287Z,4.57
2022-08-27T05:18:35.254Z,5.93
2022-08-27T05:21:04.905Z,6.07
2022-08-27T05:23:33.433Z,6.45
2022-08-27T05:26:03.575Z,6.18
2022-08-27T05:28:30.193Z,5.93
2022-08-27T05:31:04.634Z,5.47
2022-08-27T05:33:31.435Z,5.45
2022-08-27T05:36:00.703Z,5.85
2022-08-27T05:38:28.041Z,5.88
2022-08-27T05:41:09.135Z,5.72
2022-08-27T05:43:38.360Z,6.43
2022-08-27T05:46:06.139Z,6.65
2022-08-27T05:48:33.116Z,6.35
2022-08-27T05:51:02.857Z,6.60
2022-08-27T05:53:29.611Z,6.38
2022-08-27T05:55:56.757Z,6.75
2022-08-27T05:58:43.357Z,6.47
2022-08-27T06:01:10.523Z,7.63
2022-08-27T06:03:37.566Z,7.10
2022-08-27T06:06:09.278Z,7.28
2022-08-27T06:08:36.527Z,7.90
2022-08-27T06:11:08.465Z,6.68
2022-08-27T06:13:35.579Z,5.88
2022-08-27T06:16:03.881Z,6.93
2022-08-27T06:18:33.866Z,6.68
2022-08-27T06:21:01.416Z,6.03
2022-08-27T06:23:28.320Z,6.55
2022-08-27T06:25:55.584Z,6.90
2022-08-27T06:28:23.608Z,5.75
2022-08-27T06:30:50.689Z,6.50
2022-08-27T06:33:17.282Z,6.25
2022-08-27T06:35:44.173Z,6.35
2022-08-27T06:38:10.963Z,5.85
2022-08-27T06:40:40.651Z,5.72
2022-08-27T06:43:07.255Z,5.60
2022-08-27T06:45:37.594Z,5.82
2022-08-27T06:48:04.564Z,5.45
2022-08-27T06:50:31.203Z,5.70
2022-08-27T06:52:57.885Z,5.50
2022-08-27T06:55:24.649Z,5.65
2022-08-27T06:57:51.245Z,4.97
2022-08-27T07:00:17.977Z,5.85
2022-08-27T07:02:44.622Z,5.45
2022-08-27T07:05:12.565Z,5.78
2022-08-27T07:07:44.184Z,5.55
2022-08-27T07:10:13.445Z,6.22
2022-08-27T07:12:40.025Z,5.65
2022-08-27T07:15:06.775Z,6.28
2022-08-27T07:17:33.465Z,6.55
2022-08-27T07:20:00.300Z,5.70
2022-08-27T07:22:26.977Z,6.07
2022-08-27T07:24:53.953Z,5.82
2022-08-27T07:27:21.738Z,5.72
2022-08-27T07:29:48.366Z,5.43
2022-08-27T07:32:15.006Z,6.18
2022-08-27T07:34:41.568Z,5.93
2022-08-27T07:37:08.359Z,5.90
2022-08-27T07:39:34.949Z,6.05
2022-08-27T07:42:20.214Z,6.00
2022-08-27T07:44:46.774Z,7.97
2022-08-27T07:47:13.857Z,7.18
2022-08-27T07:49:40.466Z,6.88
2022-08-27T07:52:09.829Z,6.93
2022-08-27T07:54:36.437Z,6.18
2022-08-27T07:57:03.076Z,5.68
2022-08-27T07:59:29.836Z,8.23
2022-08-27T08:01:57.923Z,8.45
2022-08-27T08:04:24.543Z,8.88
2022-08-27T08:06:51.162Z,9.43
2022-08-27T08:09:17.795Z,8.82
2022-08-27T08:11:44.375Z,8.18
2022-08-27T08:14:11.145Z,8.50
2022-08-27T08:16:37.782Z,9.73
2022-08-27T08:19:04.420Z,9.63
2022-08-27T08:21:31.071Z,10.05
2022-08-27T08:23:58.070Z,10.52
2022-08-27T08:26:24.853Z,9.25
2022-08-27T08:28:51.552Z,9.80
2022-08-27T08:31:18.282Z,10.77
2022-08-27T08:33:46.436Z,9.30
2022-08-27T08:36:13.415Z,10.20
2022-08-27T08:38:40.251Z,10.38
2022-08-27T08:41:19.979Z,9.18
2022-08-27T08:43:51.653Z,9.40
2022-08-27T08:46:22.142Z,8.90
2022-08-27T08:48:49.586Z,9.63
2022-08-27T08:51:18.459Z,9.25
2022-08-27T08:53:53.880Z,9.68
2022-08-27T08:56:44.055Z,7.65
2022-08-27T08:59:29.731Z,9.68
2022-08-27T09:01:56.754Z,9.57
2022-08-27T09:04:23.383Z,7.00
2022-08-27T09:06:50.001Z,9.68
2022-08-27T09:09:16.637Z,9.27
2022-08-27T09:11:50.103Z,8.70
2022-08-27T09:14:19.771Z,8.50
2022-08-27T09:16:49.761Z,8.50
2022-08-27T09:19:16.337Z,8.63
2022-08-27T09:22:02.177Z,9.07
2022-08-27T09:24:47.307Z,9.65
2022-08-27T09:27:29.336Z,9.25
2022-08-27T09:29:59.107Z,8.60
2022-08-27T09:33:00.659Z,8.82
2022-08-27T09:42:06.501Z,9.20
2022-08-27T09:44:45.221Z,8.93
2022-08-27T09:47:32.400Z,9.50
2022-08-27T09:50:20.899Z,9.63
2022-08-27T09:53:01.252Z,9.88
2022-08-27T09:56:32.227Z,8.75
2022-08-27T09:59:30.110Z,9.80
2022-08-27T10:02:34.073Z,9.98
2022-08-27T10:05:41.208Z,9.23
2022-08-27T10:11:10.171Z,10.40
2022-08-27T10:14:06.917Z,9.40
2022-08-27T10:16:59.288Z,9.32
2022-08-27T10:20:01.143Z,8.50
2022-08-27T10:23:02.021Z,8.80
2022-08-27T10:26:25.859Z,8.73
2022-08-27T10:38:27.270Z,6.88
2022-08-27T10:41:33.118Z,7.35
2022-08-27T10:44:37.343Z,6.97
2022-08-27T10:47:57.785Z,7.07
2022-08-27T10:54:23.661Z,6.15
2022-08-27T11:06:47.257Z,4.07
2022-08-27T11:09:16.574Z,4.20
2022-08-27T11:14:40.824Z,4.25
2022-08-27T11:17:32.079Z,3.65
2022-08-27T11:20:04.746Z,3.08
2022-08-27T11:22:46.331Z,2.60
2022-08-27T11:25:13.173Z,3.50
2022-08-27T11:27:40.235Z,2.92
2022-08-27T11:30:07.087Z,3.10
2022-08-27T11:32:49.463Z,3.92
2022-08-27T11:35:20.527Z,3.58
2022-08-27T11:38:06.032Z,2.90
2022-08-27T11:40:38.844Z,3.35
2022-08-27T11:43:17.998Z,3.38
2022-08-27T11:45:54.042Z,3.20
2022-08-27T11:48:25.152Z,3.72
2022-08-27T11:50:55.331Z,3.35
2022-08-27T11:53:32.638Z,3.70
2022-08-27T11:56:12.173Z,3.30
2022-08-27T11:58:52.530Z,3.53
2022-08-27T12:01:28.111Z,3.42
2022-08-27T12:04:02.278Z,3.22
2022-08-27T12:06:30.034Z,2.72
2022-08-27T12:09:05.987Z,2.40
2022-08-27T12:11:42.739Z,2.22
2022-08-27T12:14:28.533Z,2.33
2022-08-27T12:17:01.375Z,2.72
2022-08-27T12:19:28.324Z,2.50
2022-08-27T12:22:07.354Z,2.70
2022-08-27T12:24:36.929Z,3.40
2022-08-27T12:27:22.215Z,2.95
2022-08-27T12:29:52.940Z,2.50
2022-08-27T12:32:33.165Z,3.00
2022-08-27T12:35:00.355Z,2.55
2022-08-27T12:37:28.759Z,2.88
2022-08-27T12:39:57.620Z,2.50
2022-08-27T12:42:24.267Z,2.55
2022-08-27T12:44:54.723Z,3.13
2022-08-27T12:47:21.300Z,3.38
2022-08-27T12:49:56.647Z,3.65
2022-08-27T12:52:23.244Z,3.22
2022-08-27T12:54:52.937Z,3.38
2022-08-27T12:57:28.748Z,3.10
2022-08-27T13:00:08.987Z,3.10
2022-08-27T13:02:54.405Z,3.42
2022-08-27T13:05:21.673Z,2.42
2022-08-27T13:07:51.217Z,2.67
2022-08-27T13:10:28.215Z,2.50
2022-08-27T13:13:05.107Z,3.55
2022-08-27T13:15:31.827Z,2.90
2022-08-27T13:17:58.677Z,2.63
2022-08-27T13:20:29.224Z,2.80
2022-08-27T13:23:00.029Z,2.80
2022-08-27T13:25:28.729Z,2.20
2022-08-27T13:28:02.124Z,2.65
2022-08-27T13:30:36.060Z,2.65
2022-08-27T13:33:03.746Z,2.92
2022-08-27T13:35:33.391Z,2.72
2022-08-27T13:38:01.985Z,2.20
2022-08-27T13:40:33.158Z,2.50
2022-08-27T13:43:12.705Z,2.90
2022-08-27T13:45:40.037Z,3.03
2022-08-27T13:48:06.883Z,2.83
2022-08-27T13:50:34.371Z,2.70
2022-08-27T13:53:24.213Z,2.38
2022-08-27T13:55:50.863Z,2.42
2022-08-27T13:58:25.026Z,2.80
2022-08-27T14:00:51.591Z,2.75
2022-08-27T14:03:25.194Z,3.10
2022-08-27T14:05:51.961Z,2.97
2022-08-27T14:08:18.887Z,2.45
2022-08-27T14:10:46.831Z,2.70
2022-08-27T14:13:13.440Z,3.00
2022-08-27T14:15:41.859Z,2.88
2022-08-27T14:18:20.564Z,2.50
2022-08-27T14:20:51.530Z,2.08
2022-08-27T14:23:18.275Z,2.80
2022-08-27T14:25:44.883Z,2.42
2022-08-27T14:28:11.860Z,3.08
2022-08-27T14:30:38.696Z,2.30
2022-08-27T14:33:05.456Z,2.85
2022-08-27T14:35:32.737Z,2.80
2022-08-27T14:37:59.758Z,2.78
2022-08-27T14:40:26.411Z,3.08
2022-08-27T14:42:53.115Z,3.35
2022-08-27T14:45:20.943Z,2.60
2022-08-27T14:47:47.525Z,3.05
2022-08-27T14:50:14.321Z,2.58
2022-08-27T14:52:40.964Z,2.75
2022-08-27T14:55:10.697Z,2.65
2022-08-27T14:57:37.694Z,2.65
2022-08-27T15:00:05.222Z,2.85
2022-08-27T15:02:31.839Z,2.63
2022-08-27T15:04:58.525Z,3.20
2022-08-27T15:07:25.146Z,3.17
2022-08-27T15:09:51.757Z,2.80
2022-08-27T15:12:25.897Z,2.65
2022-08-27T15:14:52.780Z,2.90
2022-08-27T15:17:34.021Z,2.88
2022-08-27T15:20:02.294Z,2.63
2022-08-27T15:22:32.167Z,2.53
2022-08-27T15:24:59.018Z,2.90
2022-08-27T15:27:27.546Z,2.72
2022-08-27T15:30:05.810Z,2.75
2022-08-27T15:32:33.567Z,2.55
2022-08-27T15:35:00.867Z,2.45
2022-08-27T15:37:27.651Z,2.63
2022-08-27T15:39:54.441Z,3.28
2022-08-27T15:42:21.438Z,3.05
2022-08-27T15:44:49.021Z,3.05
2022-08-27T15:47:19.460Z,3.05
2022-08-27T15:49:46.508Z,3.28
2022-08-27T15:52:16.100Z,3.60
2022-08-27T15:54:43.222Z,3.40
2022-08-27T15:57:09.803Z,3.45
2022-08-27T15:59:39.019Z,3.50
2022-08-27T16:02:06.067Z,3.70
2022-08-27T16:04:32.709Z,3.58
2022-08-27T16:07:00.645Z,3.80
2022-08-27T16:09:30.678Z,4.00
2022-08-27T16:12:00.550Z,3.60
2022-08-27T16:14:28.723Z,3.50
2022-08-27T16:19:45.994Z,4.28
2022-08-27T16:22:12.551Z,3.58
2022-08-27T16:24:39.082Z,4.07
2022-08-27T16:27:05.662Z,3.88
2022-08-27T16:29:32.204Z,3.92
2022-08-27T16:32:01.314Z,4.35
2022-08-27T16:34:28.236Z,3.70
2022-08-27T16:36:55.091Z,4.05
2022-08-27T16:39:21.796Z,4.97
2022-08-27T16:41:48.487Z,4.25
2022-08-27T16:44:15.119Z,4.40
2022-08-27T16:46:41.977Z,4.35
2022-08-27T16:49:27.496Z,4.38
2022-08-27T16:51:54.099Z,4.10
2022-08-27T16:54:21.657Z,4.07
2022-08-27T16:56:48.511Z,4.07
2022-08-27T16:59:15.964Z,4.90
2022-08-27T17:01:45.905Z,5.03
2022-08-27T17:04:18.375Z,5.22
2022-08-27T17:06:54.944Z,4.40
2022-08-27T17:09:22.678Z,4.80
2022-08-27T17:11:51.364Z,5.22
2022-08-27T17:14:17.878Z,4.65
2022-08-27T17:16:44.613Z,4.90
2022-08-27T17:19:16.673Z,5.00
2022-08-27T17:21:45.457Z,5.00
2022-08-27T17:24:12.518Z,4.57
2022-08-27T17:26:39.232Z,4.78
2022-08-27T17:29:05.730Z,4.65
2022-08-27T17:31:33.275Z,5.13
2022-08-27T17:33:59.872Z,5.55
2022-08-27T17:36:26.889Z,5.20
2022-08-27T17:38:54.254Z,4.80
2022-08-27T17:41:28.712Z,5.78
2022-08-27T17:43:59.021Z,5.07
2022-08-27T17:46:25.836Z,5.45
2022-08-27T17:48:52.377Z,5.90
2022-08-27T17:51:20.292Z,5.13
2022-08-27T17:53:48.059Z,5.30
2022-08-27T17:56:15.540Z,5.93
2022-08-27T17:58:42.203Z,6.47
2022-08-27T18:01:11.386Z,5.13
2022-08-27T18:03:47.613Z,5.78
2022-08-27T18:06:14.829Z,5.68
2022-08-27T18:08:41.316Z,5.93
2022-08-27T18:11:07.836Z,6.03
2022-08-27T18:13:37.297Z,5.82
2022-08-27T18:16:04.354Z,6.50
2022-08-27T18:18:30.875Z,6.13
2022-08-27T18:20:57.872Z,6.47
2022-08-27T18:23:24.562Z,6.45
2022-08-27T18:25:51.866Z,7.57
2022-08-27T18:28:18.516Z,6.60
2022-08-27T18:30:45.206Z,7.60
2022-08-27T18:33:11.868Z,7.00
2022-08-27T18:35:40.378Z,6.82
2022-08-27T18:38:07.300Z,7.07
2022-08-27T18:40:38.207Z,7.25
2022-08-27T18:43:04.842Z,6.40
2022-08-27T18:45:33.316Z,7.40
2022-08-27T18:48:08.262Z,7.43
2022-08-27T18:50:34.850Z,7.93
2022-08-27T18:53:01.326Z,6.85
2022-08-27T18:55:28.342Z,6.97
2022-08-27T18:57:54.932Z,7.57
2022-08-27T19:00:21.595Z,7.40
2022-08-27T19:02:52.104Z,8.40
2022-08-27T19:05:20.836Z,8.00
2022-08-27T19:07:47.291Z,8.00
2022-08-27T19:10:15.588Z,8.05
2022-08-27T19:12:42.120Z,8.27
2022-08-27T19:15:11.589Z,9.35
2022-08-27T19:17:38.090Z,8.85
2022-08-27T19:20:04.826Z,8.65
2022-08-27T19:22:32.030Z,9.90
2022-08-27T19:24:58.903Z,9.88
2022-08-27T19:27:25.872Z,10.50
2022-08-27T19:29:52.441Z,10.45
2022-08-27T19:32:19.171Z,9.68
2022-08-27T19:34:45.654Z,9.40
2022-08-27T19:37:17.339Z,9.73
2022-08-27T19:39:43.899Z,8.75
2022-08-27T19:42:10.682Z,9.70
2022-08-27T19:44:37.320Z,8.95
2022-08-27T19:47:04.121Z,8.82
2022-08-27T19:49:30.584Z,8.75
2022-08-27T19:51:57.192Z,10.55
2022-08-27T19:54:23.832Z,9.02
2022-08-27T19:56:59.380Z,8.70
2022-08-27T19:59:25.918Z,9.27
2022-08-27T20:01:53.929Z,9.13
2022-08-27T20:04:20.823Z,10.00
2022-08-27T20:06:47.516Z,9.45
2022-08-27T20:09:16.310Z,8.93
2022-08-27T20:11:43.610Z,8.98
2022-08-27T20:14:10.370Z,10.18
2022-08-27T20:16:37.037Z,9.65
2022-08-27T20:19:04.207Z,9.88
2022-08-27T20:21:30.780Z,10.23
2022-08-27T20:23:57.386Z,10.00
2022-08-27T20:26:24.835Z,10.77
2022-08-27T20:28:51.875Z,10.55
2022-08-27T20:31:18.532Z,11.48
2022-08-27T20:33:45.040Z,10.18
2022-08-27T20:36:12.148Z,11.60
2022-08-27T20:38:38.759Z,9.95
2022-08-27T20:41:05.767Z,10.15
2022-08-27T20:43:32.472Z,9.60
2022-08-27T20:45:59.287Z,8.30
2022-08-27T20:48:25.839Z,8.43
2022-08-27T20:50:52.344Z,8.20
2022-08-27T20:53:18.831Z,7.45
2022-08-27T20:55:45.343Z,7.85
2022-08-27T20:58:30.514Z,8.20
2022-08-27T21:00:57.088Z,7.93
2022-08-27T21:03:23.641Z,7.78
2022-08-27T21:05:50.219Z,8.50
2022-08-27T21:08:17.216Z,7.68
2022-08-27T21:10:49.069Z,8.18
2022-08-27T21:13:15.687Z,7.90
2022-08-27T21:15:42.163Z,7.80
2022-08-27T21:18:08.732Z,8.48
2022-08-27T21:20:35.301Z,7.18
2022-08-27T21:23:02.010Z,9.07
2022-08-27T21:25:28.586Z,9.23
2022-08-27T21:27:55.343Z,8.73
2022-08-27T21:30:21.840Z,8.40
2022-08-27T21:32:48.589Z,7.93
2022-08-27T21:35:15.048Z,7.95
2022-08-27T21:37:42.056Z,8.88
2022-08-27T21:40:08.913Z,7.90
2022-08-27T21:42:35.575Z,8.60
2022-08-27T21:45:03.496Z,8.23
2022-08-27T21:47:30.472Z,8.82
2022-08-27T21:49:56.963Z,7.90
2022-08-27T21:52:23.933Z,8.65
2022-08-27T21:54:50.445Z,8.73
2022-08-27T21:57:17.033Z,9.93
2022-08-27T21:59:44.571Z,8.18
2022-08-27T22:02:35.949Z,7.90
2022-08-27T22:04:57.673Z,7.90
2022-08-27T22:07:24.535Z,7.97
2022-08-27T22:09:50.999Z,8.93
2022-08-27T22:12:17.483Z,8.57
2022-08-27T22:14:44.087Z,7.88
2022-08-27T22:17:10.655Z,7.68
2022-08-27T22:19:37.150Z,8.18
2022-08-27T22:22:03.711Z,7.53
2022-08-27T22:24:30.183Z,7.38
2022-08-27T22:26:56.706Z,7.90
2022-08-27T22:29:24.711Z,8.07
2022-08-27T22:31:51.239Z,7.78
2022-08-27T22:34:18.386Z,8.25
2022-08-27T22:36:44.896Z,7.78
2022-08-27T22:39:11.433Z,7.60
2022-08-27T22:41:38.253Z,7.40
2022-08-27T22:44:08.381Z,6.97
2022-08-27T22:46:35.704Z,6.93
2022-08-27T22:49:02.355Z,6.25
2022-08-27T22:51:28.890Z,6.82
2022-08-27T22:53:55.397Z,7.30
2022-08-27T22:56:21.909Z,7.50
2022-08-27T22:58:48.495Z,7.90
2022-08-27T23:01:18.686Z,7.50
2022-08-27T23:03:45.705Z,7.25
2022-08-27T23:06:12.385Z,7.13
2022-08-27T23:08:39.145Z,8.07
2022-08-27T23:11:05.735Z,7.15
2022-08-27T23:13:32.241Z,7.45
2022-08-27T23:15:59.471Z,7.40
2022-08-27T23:18:26.160Z,8.20
2022-08-27T23:20:53.104Z,7.38
2022-08-27T23:23:20.265Z,7.60
2022-08-27T23:26:05.630Z,7.82
2022-08-27T23:28:32.136Z,7.88
2022-08-27T23:30:58.826Z,7.00
2022-08-27T23:33:25.396Z,7.30
2022-08-27T23:35:52.289Z,7.32
2022-08-27T23:38:19.016Z,8.23
2022-08-27T23:40:46.007Z,7.82
2022-08-27T23:43:12.923Z,8.32
2022-08-27T23:45:40.480Z,8.18
2022-08-27T23:48:07.375Z,8.48
2022-08-27T23:50:34.527Z,8.18
2022-08-27T23:53:01.888Z,8.52
2022-08-27T23:55:28.466Z,8.27
2022-08-27T23:57:57.866Z,8.70
